createdAt,value
2019-04-11T00:01:56.853Z,5.63
2019-04-11T00:04:42.469Z,6.10
2019-04-11T00:07:28.119Z,5.73
2019-04-11T00:10:15.272Z,5.73
2019-04-11T00:13:15.104Z,5.47
2019-04-11T00:15:49.342Z,5.13
2019-04-11T00:18:36.067Z,5.27
2019-04-11T00:21:24.597Z,5.13
2019-04-11T00:24:10.757Z,4.93
2019-04-11T00:26:57.162Z,5.33
2019-04-11T00:29:42.858Z,4.77
2019-04-11T00:32:29.566Z,5.20
2019-04-11T00:35:17.374Z,5.53
2019-04-11T00:38:03.469Z,5.20
2019-04-11T00:40:49.203Z,4.90
2019-04-11T00:43:39.052Z,5.23
2019-04-11T00:46:22.994Z,5.20
2019-04-11T00:49:08.549Z,4.67
2019-04-11T00:51:56.130Z,5.07
2019-04-11T00:54:42.706Z,4.80
2019-04-11T00:57:28.660Z,5.33
2019-04-11T01:00:15.429Z,4.80
2019-04-11T01:03:02.033Z,5.10
2019-04-11T01:05:49.911Z,5.20
2019-04-11T01:08:36.209Z,5.53
2019-04-11T01:11:21.941Z,5.83
2019-04-11T01:14:07.916Z,4.93
2019-04-11T01:16:54.835Z,5.30
2019-04-11T01:19:40.794Z,5.17
2019-04-11T01:22:26.575Z,5.70
2019-04-11T01:25:13.335Z,4.73
2019-04-11T01:28:00.456Z,4.93
2019-04-11T01:31:06.783Z,5.20
2019-04-11T01:33:53.806Z,4.87
2019-04-11T01:36:39.485Z,5.40
2019-04-11T01:39:45.272Z,5.23
2019-04-11T01:42:31.413Z,5.33
2019-04-11T01:45:19.486Z,5.17
2019-04-11T01:48:15.910Z,4.67
2019-04-11T01:51:01.466Z,4.97
2019-04-11T01:53:47.070Z,5.63
2019-04-11T01:56:33.607Z,5.43
2019-04-11T01:59:19.481Z,4.50
2019-04-11T02:02:28.700Z,5.50
2019-04-11T02:05:29.406Z,5.23
2019-04-11T02:08:15.400Z,4.80
2019-04-11T02:11:01.614Z,4.97
2019-04-11T02:13:48.180Z,5.43
2019-04-11T02:16:34.872Z,4.57
2019-04-11T02:19:21.514Z,6.30
2019-04-11T02:22:22.787Z,5.47
2019-04-11T02:25:25.452Z,5.93
2019-04-11T02:28:12.818Z,5.57
2019-04-11T02:31:00.155Z,5.83
2019-04-11T02:33:48.822Z,5.50
2019-04-11T02:36:36.416Z,6.10
2019-04-11T02:39:24.333Z,5.93
2019-04-11T02:42:10.878Z,5.60
2019-04-11T02:45:13.205Z,6.57
2019-04-11T02:47:48.150Z,5.50
2019-04-11T02:50:34.948Z,5.50
2019-04-11T02:53:23.607Z,5.70
2019-04-11T02:56:11.702Z,6.30
2019-04-11T02:58:59.870Z,5.87
2019-04-11T03:01:46.469Z,5.77
2019-04-11T03:04:32.608Z,5.63
2019-04-11T03:07:20.546Z,5.53
2019-04-11T03:10:07.395Z,6.30
2019-04-11T03:12:54.585Z,6.00
2019-04-11T03:15:56.961Z,5.30
2019-04-11T03:18:45.796Z,6.03
2019-04-11T03:21:21.574Z,6.07
2019-04-11T03:24:08.331Z,6.23
2019-04-11T03:26:57.984Z,6.60
2019-04-11T03:29:43.189Z,6.00
2019-04-11T03:33:17.378Z,5.90
2019-04-11T03:36:07.578Z,6.10
2019-04-11T03:38:31.138Z,5.87
2019-04-11T03:41:10.335Z,5.77
2019-04-11T03:43:57.060Z,7.23
2019-04-11T03:46:47.704Z,7.40
2019-04-11T03:49:27.823Z,6.77
2019-04-11T03:52:06.331Z,6.53
2019-04-11T03:54:54.044Z,6.73
2019-04-11T03:57:41.762Z,6.33
2019-04-11T04:00:33.584Z,6.00
2019-04-11T04:03:15.727Z,6.40
2019-04-11T04:06:02.051Z,6.87
2019-04-11T04:08:50.677Z,6.60
2019-04-11T04:11:38.053Z,6.77
2019-04-11T04:14:44.617Z,7.07
2019-04-11T04:17:52.271Z,6.70
2019-04-11T04:21:09.178Z,6.63
2019-04-11T04:23:57.876Z,7.07
2019-04-11T04:26:43.633Z,6.63
2019-04-11T04:29:32.040Z,7.60
2019-04-11T04:32:18.725Z,6.53
2019-04-11T04:35:09.147Z,14.00
2019-04-11T04:37:54.601Z,10.20
2019-04-11T04:40:58.542Z,7.83
2019-04-11T04:43:31.573Z,7.57
2019-04-11T04:46:38.244Z,7.73
2019-04-11T04:49:06.971Z,7.07
2019-04-11T04:51:53.344Z,6.17
2019-04-11T04:54:41.066Z,7.10
2019-04-11T04:57:29.772Z,7.13
2019-04-11T05:00:16.068Z,7.50
2019-04-11T05:03:02.407Z,7.60
2019-04-11T05:05:51.054Z,7.43
2019-04-11T05:08:38.854Z,7.60
2019-04-11T05:11:26.240Z,7.53
2019-04-11T05:14:12.571Z,7.47
2019-04-11T05:16:58.668Z,7.10
2019-04-11T05:19:44.646Z,6.83
2019-04-11T05:22:31.071Z,7.27
2019-04-11T05:25:18.189Z,7.93
2019-04-11T05:28:06.517Z,7.57
2019-04-11T05:30:53.202Z,6.80
2019-04-11T05:33:41.011Z,7.33
2019-04-11T05:36:26.419Z,7.40
2019-04-11T05:39:13.094Z,7.63
2019-04-11T05:42:00.191Z,7.53
2019-04-11T05:44:45.629Z,8.17
2019-04-11T05:47:31.697Z,8.23
2019-04-11T05:50:28.778Z,8.83
2019-04-11T05:53:15.733Z,7.87
2019-04-11T05:56:03.666Z,7.70
2019-04-11T05:58:51.522Z,7.73
2019-04-11T06:01:42.506Z,7.80
2019-04-11T06:04:34.623Z,8.17
2019-04-11T06:07:27.866Z,7.80
2019-04-11T06:10:18.091Z,7.03
2019-04-11T06:13:16.457Z,6.50
2019-04-11T06:16:03.091Z,7.40
2019-04-11T06:19:28.638Z,7.03
2019-04-11T06:22:16.870Z,7.77
2019-04-11T06:25:19.488Z,7.37
2019-04-11T06:28:13.864Z,7.20
2019-04-11T06:31:20.204Z,7.53
2019-04-11T06:34:07.200Z,7.83
2019-04-11T06:37:14.917Z,7.37
2019-04-11T06:40:06.111Z,7.43
2019-04-11T06:43:03.676Z,7.53
2019-04-11T06:46:13.163Z,7.67
2019-04-11T06:49:06.574Z,8.23
2019-04-11T06:51:56.761Z,7.17
2019-04-11T06:55:08.761Z,7.83
2019-04-11T06:58:08.593Z,7.40
2019-04-11T07:01:09.685Z,7.40
2019-04-11T07:04:06.470Z,8.13
2019-04-11T07:06:53.840Z,7.77
2019-04-11T07:09:45.286Z,7.93
2019-04-11T07:12:47.135Z,7.97
2019-04-11T07:15:39.811Z,8.57
2019-04-11T07:18:35.728Z,7.93
2019-04-11T07:21:25.342Z,8.47
2019-04-11T07:24:25.415Z,8.80
2019-04-11T07:27:14.260Z,8.40
2019-04-11T07:30:31.349Z,8.70
2019-04-11T07:33:46.780Z,9.37
2019-04-11T07:36:53.574Z,7.83
2019-04-11T07:40:09.325Z,8.67
2019-04-11T07:43:08.810Z,9.23
2019-04-11T07:46:22.372Z,9.00
2019-04-11T07:49:08.339Z,8.97
2019-04-11T07:51:58.136Z,9.40
2019-04-11T07:54:56.205Z,8.20
2019-04-11T07:58:17.456Z,9.50
2019-04-11T08:01:33.890Z,9.20
2019-04-11T08:04:51.177Z,9.53
2019-04-11T08:08:06.281Z,8.73
2019-04-11T08:11:11.543Z,9.40
2019-04-11T08:14:18.208Z,9.43
2019-04-11T08:17:25.883Z,8.97
2019-04-11T08:20:35.772Z,8.57
2019-04-11T08:23:23.481Z,9.77
2019-04-11T08:26:32.346Z,9.43
2019-04-11T08:29:20.044Z,9.93
2019-04-11T08:32:25.919Z,10.00
2019-04-11T08:35:26.593Z,8.80
2019-04-11T08:38:16.549Z,9.73
2019-04-11T08:41:31.754Z,8.90
2019-04-11T08:44:24.170Z,9.27
2019-04-11T08:47:12.608Z,9.80
2019-04-11T08:49:58.450Z,9.47
2019-04-11T08:53:02.558Z,10.10
2019-04-11T08:55:56.258Z,8.83
2019-04-11T08:59:04.992Z,10.03
2019-04-11T09:01:50.553Z,9.63
2019-04-11T09:05:08.449Z,10.50
2019-04-11T09:08:12.429Z,7.90
2019-04-11T09:11:17.031Z,6.90
2019-04-11T09:14:22.351Z,7.50
2019-04-11T09:17:16.511Z,7.23
2019-04-11T09:20:29.794Z,7.80
2019-04-11T09:23:19.757Z,7.77
2019-04-11T09:26:32.014Z,7.23
2019-04-11T09:29:19.021Z,8.10
2019-04-11T09:32:26.636Z,8.60
2019-04-11T09:35:22.086Z,8.40
2019-04-11T09:38:10.483Z,9.33
2019-04-11T09:41:05.961Z,9.00
2019-04-11T09:43:54.481Z,8.70
2019-04-11T09:47:15.537Z,7.73
2019-04-11T09:50:02.522Z,8.13
2019-04-11T09:52:49.565Z,8.30
2019-04-11T09:55:49.990Z,9.00
2019-04-11T09:58:35.753Z,9.00
2019-04-11T10:01:40.794Z,9.87
2019-04-11T10:04:29.738Z,9.67
2019-04-11T10:07:54.475Z,8.90
2019-04-11T10:10:58.165Z,8.53
2019-04-11T10:13:59.542Z,8.57
2019-04-11T10:17:06.692Z,8.63
2019-04-11T10:19:58.526Z,9.47
2019-04-11T10:23:03.301Z,9.63
2019-04-11T10:25:57.723Z,9.43
2019-04-11T10:29:06.525Z,9.13
2019-04-11T10:31:52.832Z,9.87
2019-04-11T10:34:57.627Z,9.73
2019-04-11T10:37:44.371Z,9.33
2019-04-11T10:41:02.132Z,9.37
2019-04-11T10:43:48.121Z,9.27
2019-04-11T10:46:45.385Z,8.57
2019-04-11T10:49:50.539Z,8.53
2019-04-11T10:52:39.414Z,8.80
2019-04-11T10:55:44.693Z,9.73
2019-04-11T10:58:51.242Z,9.13
2019-04-11T11:01:58.179Z,9.20
2019-04-11T11:04:48.482Z,9.47
2019-04-11T11:07:36.724Z,9.50
2019-04-11T11:10:25.830Z,8.80
2019-04-11T11:13:50.119Z,9.87
2019-04-11T11:16:45.469Z,8.93
2019-04-11T11:20:11.881Z,9.17
2019-04-11T11:23:29.060Z,9.97
2019-04-11T11:26:21.432Z,9.10
2019-04-11T11:29:24.388Z,8.60
2019-04-11T11:32:23.213Z,8.87
2019-04-11T11:35:30.598Z,9.47
2019-04-11T11:38:22.294Z,8.67
2019-04-11T11:41:39.328Z,9.43
2019-04-11T11:44:31.365Z,9.20
2019-04-11T11:47:38.699Z,8.63
2019-04-11T11:50:23.754Z,9.17
2019-04-11T11:53:33.105Z,8.83
2019-04-11T11:56:19.925Z,9.70
2019-04-11T11:59:15.271Z,9.07
2019-04-11T12:02:08.501Z,9.10
2019-04-11T12:05:18.046Z,9.07
2019-04-11T12:08:20.348Z,9.27
2019-04-11T12:11:10.227Z,8.87
2019-04-11T12:14:13.180Z,8.63
2019-04-11T12:17:10.156Z,8.67
2019-04-11T12:20:09.782Z,9.93
2019-04-11T12:22:55.225Z,8.93
2019-04-11T12:25:45.169Z,8.77
2019-04-11T12:28:52.172Z,8.27
2019-04-11T12:31:40.470Z,8.07
2019-04-11T12:34:55.725Z,9.10
2019-04-11T12:37:50.357Z,7.73
2019-04-11T12:41:06.606Z,9.13
2019-04-11T12:44:29.480Z,8.07
2019-04-11T12:47:42.296Z,7.83
2019-04-11T12:51:03.154Z,8.30
2019-04-11T12:53:49.855Z,7.80
2019-04-11T12:56:52.366Z,8.13
2019-04-11T12:59:41.529Z,7.77
2019-04-11T13:02:50.389Z,8.83
2019-04-11T13:05:35.847Z,8.80
2019-04-11T13:08:41.529Z,9.60
2019-04-11T13:11:27.636Z,8.83
2019-04-11T13:14:32.083Z,10.17
2019-04-11T13:17:25.785Z,9.23
2019-04-11T13:20:37.905Z,9.23
2019-04-11T13:23:31.772Z,8.10
2019-04-11T13:26:38.081Z,9.40
2019-04-11T13:29:53.201Z,9.00
2019-04-11T13:32:49.866Z,8.50
2019-04-11T13:36:03.719Z,9.07
2019-04-11T13:38:51.683Z,8.07
2019-04-11T13:41:49.116Z,7.93
2019-04-11T13:44:38.407Z,7.83
2019-04-11T13:47:56.969Z,7.43
2019-04-11T13:50:43.084Z,7.93
2019-04-11T13:53:47.513Z,7.40
2019-04-11T13:57:01.231Z,7.20
2019-04-11T14:00:05.604Z,8.87
2019-04-11T14:03:15.109Z,7.00
2019-04-11T14:06:09.657Z,8.93
2019-04-11T14:09:14.926Z,8.53
2019-04-11T14:12:04.868Z,7.60
2019-04-11T14:15:01.096Z,7.10
2019-04-11T14:18:05.086Z,7.90
2019-04-11T14:20:57.232Z,7.73
2019-04-11T14:24:02.066Z,7.70
2019-04-11T14:26:49.346Z,7.07
2019-04-11T14:29:41.745Z,6.83
2019-04-11T14:32:29.842Z,8.30
2019-04-11T14:35:34.025Z,8.10
2019-04-11T14:38:21.800Z,7.13
2019-04-11T14:41:17.430Z,7.33
2019-04-11T14:44:03.852Z,7.40
2019-04-11T14:47:22.449Z,7.40
2019-04-11T14:50:11.211Z,7.27
2019-04-11T14:53:20.778Z,6.90
2019-04-11T14:56:07.912Z,7.70
2019-04-11T14:59:25.457Z,7.00
2019-04-11T15:02:32.571Z,8.17
2019-04-11T15:05:27.956Z,7.03
2019-04-11T15:08:17.744Z,6.77
2019-04-11T15:11:25.546Z,7.13
2019-04-11T15:14:40.198Z,7.20
2019-04-11T15:17:31.105Z,8.00
2019-04-11T15:20:56.004Z,8.87
2019-04-11T15:23:44.302Z,7.43
2019-04-11T15:26:48.922Z,6.87
2019-04-11T15:29:37.581Z,7.47
2019-04-11T15:32:42.924Z,7.30
2019-04-11T15:35:28.835Z,7.40
2019-04-11T15:38:52.413Z,7.90
2019-04-11T15:41:39.338Z,6.93
2019-04-11T15:44:45.422Z,7.83
2019-04-11T15:47:31.128Z,7.60
2019-04-11T15:50:45.508Z,7.87
2019-04-11T15:53:46.270Z,7.20
2019-04-11T15:56:42.063Z,7.87
2019-04-11T15:59:56.737Z,7.97
2019-04-11T16:03:00.078Z,7.37
2019-04-11T16:06:11.894Z,7.63
2019-04-11T16:09:01.478Z,7.70
2019-04-11T16:12:06.127Z,7.87
2019-04-11T16:15:06.614Z,7.57
2019-04-11T16:18:06.255Z,7.77
2019-04-11T16:20:54.750Z,6.90
2019-04-11T16:23:57.637Z,6.93
2019-04-11T16:27:06.495Z,7.33
2019-04-11T16:29:58.134Z,7.10
2019-04-11T16:32:48.395Z,7.43
2019-04-11T16:35:44.959Z,7.63
2019-04-11T16:38:34.667Z,7.03
2019-04-11T16:41:39.378Z,6.63
2019-04-11T16:44:47.502Z,6.33
2019-04-11T16:47:44.028Z,6.97
2019-04-11T16:50:30.345Z,6.83
2019-04-11T16:53:16.280Z,6.90
2019-04-11T16:56:03.001Z,7.17
2019-04-11T16:58:50.081Z,7.27
2019-04-11T17:01:37.019Z,6.47
2019-04-11T17:04:27.294Z,6.57
2019-04-11T17:07:35.584Z,7.00
2019-04-11T17:10:42.013Z,7.23
2019-04-11T17:13:32.117Z,6.43
2019-04-11T17:16:21.057Z,7.00
2019-04-11T17:19:07.148Z,6.37
2019-04-11T17:21:55.731Z,6.07
2019-04-11T17:24:42.254Z,6.77
2019-04-11T17:27:39.723Z,6.20
2019-04-11T17:30:38.822Z,6.83
2019-04-11T17:33:28.647Z,6.23
2019-04-11T17:36:14.975Z,6.93
2019-04-11T17:39:00.769Z,5.63
2019-04-11T17:41:46.462Z,6.10
2019-04-11T17:44:34.155Z,5.60
2019-04-11T17:47:19.903Z,5.77
2019-04-11T17:50:06.374Z,5.93
2019-04-11T17:52:54.639Z,5.57
2019-04-11T17:55:40.350Z,5.07
2019-04-11T17:58:27.762Z,5.50
2019-04-11T18:01:14.352Z,5.17
2019-04-11T18:03:59.891Z,5.40
2019-04-11T18:06:47.240Z,5.00
2019-04-11T18:09:34.082Z,6.40
2019-04-11T18:12:19.871Z,5.50
2019-04-11T18:15:07.530Z,5.57
2019-04-11T18:17:53.606Z,5.33
2019-04-11T18:20:40.194Z,6.00
2019-04-11T18:23:25.830Z,5.90
2019-04-11T18:26:11.836Z,5.73
2019-04-11T18:28:57.738Z,5.97
2019-04-11T18:31:45.570Z,5.60
2019-04-11T18:34:32.311Z,5.47
2019-04-11T18:37:18.994Z,5.90
2019-04-11T18:40:08.081Z,6.37
2019-04-11T18:42:53.159Z,5.73
2019-04-11T18:45:39.798Z,5.90
2019-04-11T18:48:25.999Z,6.07
2019-04-11T18:51:16.218Z,6.20
2019-04-11T18:54:02.412Z,5.93
2019-04-11T18:56:48.508Z,5.40
2019-04-11T18:59:34.626Z,5.90
2019-04-11T19:02:25.963Z,6.20
2019-04-11T19:05:13.362Z,5.70
2019-04-11T19:07:59.414Z,5.50
2019-04-11T19:10:45.998Z,5.40
2019-04-11T19:13:31.833Z,5.23
2019-04-11T19:16:17.669Z,5.00
2019-04-11T19:19:03.822Z,5.20
2019-04-11T19:21:51.071Z,5.20
2019-04-11T19:24:41.512Z,5.20
2019-04-11T19:27:26.383Z,5.37
2019-04-11T19:30:12.357Z,5.37
2019-04-11T19:32:58.191Z,4.90
2019-04-11T19:35:45.223Z,5.20
2019-04-11T19:38:32.626Z,5.10
2019-04-11T19:41:18.392Z,4.93
2019-04-11T19:44:04.449Z,5.20
2019-04-11T19:46:51.709Z,4.40
2019-04-11T19:49:38.190Z,4.50
2019-04-11T19:52:24.076Z,4.63
2019-04-11T19:55:35.839Z,5.30
2019-04-11T19:58:24.571Z,4.63
2019-04-11T20:01:10.444Z,4.73
2019-04-11T20:03:56.558Z,4.53
2019-04-11T20:06:42.089Z,4.40
2019-04-11T20:09:27.623Z,4.70
2019-04-11T20:12:13.755Z,5.07
2019-04-11T20:14:59.495Z,5.27
2019-04-11T20:17:45.383Z,4.77
2019-04-11T20:20:31.399Z,5.90
2019-04-11T20:23:17.369Z,5.33
2019-04-11T20:26:03.584Z,5.17
2019-04-11T20:28:50.901Z,5.13
2019-04-11T20:31:37.652Z,4.93
2019-04-11T20:34:27.680Z,5.00
2019-04-11T20:37:12.988Z,5.27
2019-04-11T20:40:00.774Z,5.20
2019-04-11T20:42:46.695Z,5.33
2019-04-11T20:45:35.288Z,5.20
2019-04-11T20:48:20.979Z,5.50
2019-04-11T20:51:06.593Z,5.67
2019-04-11T20:53:53.603Z,5.33
2019-04-11T20:56:40.318Z,5.47
2019-04-11T20:59:34.353Z,5.30
2019-04-11T21:02:14.447Z,5.73
2019-04-11T21:05:01.234Z,5.53
2019-04-11T21:07:48.154Z,5.57
2019-04-11T21:10:34.529Z,4.80
2019-04-11T21:13:20.576Z,4.90
2019-04-11T21:16:07.461Z,5.30
2019-04-11T21:18:55.545Z,4.20
2019-04-11T21:21:41.703Z,4.63
2019-04-11T21:24:30.534Z,4.70
2019-04-11T21:27:15.758Z,4.50
2019-04-11T21:30:01.775Z,4.60
2019-04-11T21:32:48.066Z,4.10
2019-04-11T21:35:34.016Z,4.57
2019-04-11T21:38:21.506Z,4.60
2019-04-11T21:41:07.628Z,4.33
2019-04-11T21:43:52.998Z,4.77
2019-04-11T21:46:41.756Z,4.50
2019-04-11T21:49:26.533Z,4.03
2019-04-11T21:52:12.919Z,3.90
2019-04-11T21:54:59.492Z,4.00
2019-04-11T21:57:48.579Z,3.90
2019-04-11T22:00:41.981Z,4.77
2019-04-11T22:03:27.612Z,3.70
2019-04-11T22:06:13.183Z,4.00
2019-04-11T22:08:59.736Z,3.63
2019-04-11T22:11:45.417Z,3.80
2019-04-11T22:14:30.958Z,3.30
2019-04-11T22:17:17.125Z,4.07
2019-04-11T22:20:03.505Z,4.33
2019-04-11T22:22:49.357Z,3.20
2019-04-11T22:25:35.096Z,2.90
2019-04-11T22:28:24.071Z,3.47
2019-04-11T22:31:09.360Z,3.30
2019-04-11T22:34:12.982Z,3.43
2019-04-11T22:37:00.004Z,3.30
2019-04-11T22:39:46.580Z,3.00
2019-04-11T22:42:32.220Z,3.27
2019-04-11T22:45:17.836Z,3.40
2019-04-11T22:48:03.612Z,2.80
2019-04-11T22:50:49.102Z,2.97
2019-04-11T22:53:34.580Z,3.03
2019-04-11T22:56:20.762Z,2.87
2019-04-11T22:59:06.296Z,3.00
2019-04-11T23:01:53.567Z,2.73
2019-04-11T23:04:40.020Z,2.70
2019-04-11T23:07:25.824Z,3.27
2019-04-11T23:10:11.769Z,2.80
2019-04-11T23:12:58.368Z,2.77
2019-04-11T23:15:44.430Z,2.80
2019-04-11T23:18:30.386Z,2.70
2019-04-11T23:21:16.804Z,2.57
2019-04-11T23:24:11.488Z,2.60
2019-04-11T23:26:51.168Z,2.93
2019-04-11T23:29:37.576Z,2.93
2019-04-11T23:32:23.172Z,2.63
2019-04-11T23:35:08.779Z,2.87
2019-04-11T23:37:54.719Z,2.60
2019-04-11T23:40:40.560Z,2.97
2019-04-11T23:43:26.475Z,2.67
2019-04-11T23:46:12.472Z,2.60
2019-04-11T23:48:58.279Z,2.80
2019-04-11T23:51:44.193Z,2.87
2019-04-11T23:54:29.952Z,2.87
2019-04-11T23:57:16.504Z,2.50
